This is the latest recevied weather packets stored in our database for station/object KY4LEX. If no packets are shown the sender has not sent any weather packets the latest 10 day(s).
| Time | Temp. | Humidity | Pressure | Rain* | Wind** | Luminosity | Snow |
|---|---|---|---|---|---|---|---|
| 1777760604 | 13.89° C | 44% | 1022.1 hPa | 0 mm | - | 104 W/m² | - |
| 1777759996 | 12.22° C | 45% | 1022 hPa | 0 mm | - | 132 W/m² | - |
| 1777759389 | 12.78° C | 46% | 1022 hPa | 0 mm | - | 127 W/m² | - |
| 1777757874 | 12.22° C | 49% | 1021.9 hPa | 0 mm | - | 104 W/m² | - |
| 1777757571 | 12.78° C | 47% | 1022 hPa | 0 mm | - | 87 W/m² | - |
| 1777757270 | 12.78° C | 48% | 1021.7 hPa | 0 mm | - | 74 W/m² | - |
| 1777756057 | 12.22° C | 47% | 1021.8 hPa | 0 mm | - | 149 W/m² | - |
| 1777754240 | 13.89° C | 43% | 1021.9 hPa | 0 mm | - | 254 W/m² | - |
| 1777753632 | 13.89° C | 42% | 1022 hPa | 0 mm | - | 306 W/m² | - |
| 1777753028 | 13.33° C | 44% | 1022.3 hPa | 0 mm | - | 223 W/m² | - |
| 1777752420 | 12.78° C | 48% | 1022.3 hPa | 0 mm | - | 107 W/m² | - |
| 1777751511 | 14.44° C | 41% | 1022.1 hPa | 0 mm | - | 218 W/m² | - |
| 1777751208 | 13.89° C | 43% | 1022.4 hPa | 0 mm | - | 236 W/m² | - |
| 1777750601 | 12.78° C | 45% | 1022.1 hPa | 0 mm | - | 221 W/m² | - |
| 1777749993 | 12.78° C | 45% | 1022.3 hPa | 0 mm | - | 179 W/m² | - |
| 1777749691 | 12.78° C | 45% | 1022.3 hPa | 0 mm | - | 200 W/m² | - |
| 1777749388 | 12.22° C | 44% | 1022.3 hPa | 0 mm | - | 190 W/m² | - |
| 1777749085 | 12.22° C | 45% | 1022.3 hPa | 0 mm | - | 157 W/m² | - |
| 1777747872 | 12.22° C | 47% | 1022.2 hPa | 0 mm | - | 90 W/m² | - |
| 1777746960 | 12.22° C | 45% | 1022.3 hPa | 0 mm | - | 62 W/m² | - |
| 1777746656 | 12.78° C | 46% | 1022.2 hPa | 0 mm | - | 114 W/m² | - |
| 1777746351 | 13.33° C | 43% | 1022.5 hPa | 0 mm | - | 143 W/m² | - |
| 1777746047 | 13.33° C | 44% | 1022.3 hPa | 0 mm | - | 258 W/m² | - |
| 1777745746 | 12.78° C | 44% | 1022.4 hPa | 0 mm | - | 522 W/m² | - |
| 1777745444 | 12.78° C | 44% | 1022.8 hPa | 0 mm | - | 231 W/m² | - |
* Rain latest hour (hover to see other rain measurements)
** Current wind speed in m/s (hover to see current wind gust speed)